sensor_id;sensor_type;location;lat;lon;timestamp;pressure;altitude;pressure_sealevel;temperature;humidity
73518;BME280;61766;60.318;25.044;2024-03-06T00:01:46;103202.45;;;1.30;34.52
73518;BME280;61766;60.318;25.044;2024-03-06T00:04:11;103200.86;;;1.18;34.70
73518;BME280;61766;60.318;25.044;2024-03-06T00:06:37;103209.79;;;0.46;35.71
73518;BME280;61766;60.318;25.044;2024-03-06T00:09:03;103211.04;;;-0.20;36.89
73518;BME280;61766;60.318;25.044;2024-03-06T00:11:27;103211.50;;;0.25;36.36
73518;BME280;61766;60.318;25.044;2024-03-06T00:13:53;103211.72;;;0.13;36.18
73518;BME280;61766;60.318;25.044;2024-03-06T00:16:18;103216.99;;;0.31;36.19
73518;BME280;61766;60.318;25.044;2024-03-06T00:18:43;103218.70;;;0.28;36.58
73518;BME280;61766;60.318;25.044;2024-03-06T00:21:08;103218.32;;;-0.07;37.32
73518;BME280;61766;60.318;25.044;2024-03-06T00:23:34;103217.02;;;0.04;36.97
73518;BME280;61766;60.318;25.044;2024-03-06T00:25:59;103213.31;;;0.27;36.49
73518;BME280;61766;60.318;25.044;2024-03-06T00:28:24;103214.50;;;-0.06;36.03
73518;BME280;61766;60.318;25.044;2024-03-06T00:30:50;103216.77;;;-0.17;36.18
73518;BME280;61766;60.318;25.044;2024-03-06T00:33:15;103219.29;;;0.15;36.07
73518;BME280;61766;60.318;25.044;2024-03-06T00:35:40;103212.80;;;0.15;36.07
73518;BME280;61766;60.318;25.044;2024-03-06T00:38:06;103206.48;;;0.39;35.79
73518;BME280;61766;60.318;25.044;2024-03-06T00:40:31;103204.20;;;-0.07;35.76
73518;BME280;61766;60.318;25.044;2024-03-06T00:42:56;103206.90;;;0.06;35.92
73518;BME280;61766;60.318;25.044;2024-03-06T00:45:22;103211.60;;;0.08;36.34
73518;BME280;61766;60.318;25.044;2024-03-06T00:47:47;103216.09;;;-0.40;36.94
73518;BME280;61766;60.318;25.044;2024-03-06T00:50:12;103214.29;;;-0.33;36.74
73518;BME280;61766;60.318;25.044;2024-03-06T00:52:37;103213.25;;;-0.27;36.58
73518;BME280;61766;60.318;25.044;2024-03-06T00:55:03;103217.89;;;-0.23;36.49
73518;BME280;61766;60.318;25.044;2024-03-06T00:57:28;103220.17;;;-0.40;36.64
73518;BME280;61766;60.318;25.044;2024-03-06T00:59:54;103218.71;;;-0.34;36.55
73518;BME280;61766;60.318;25.044;2024-03-06T01:02:19;103219.48;;;-0.23;36.27
73518;BME280;61766;60.318;25.044;2024-03-06T01:04:45;103216.90;;;-0.32;36.22
73518;BME280;61766;60.318;25.044;2024-03-06T01:07:10;103214.88;;;-0.29;36.18
73518;BME280;61766;60.318;25.044;2024-03-06T01:09:35;103218.15;;;-0.26;36.17
73518;BME280;61766;60.318;25.044;2024-03-06T01:12:01;103220.06;;;-0.26;36.13
73518;BME280;61766;60.318;25.044;2024-03-06T01:14:26;103220.07;;;-0.26;36.05
73518;BME280;61766;60.318;25.044;2024-03-06T01:16:51;103220.74;;;-0.31;36.12
73518;BME280;61766;60.318;25.044;2024-03-06T01:19:17;103218.13;;;-0.38;36.11
73518;BME280;61766;60.318;25.044;2024-03-06T01:21:42;103217.95;;;-0.54;36.34
73518;BME280;61766;60.318;25.044;2024-03-06T01:24:08;103217.06;;;-0.71;36.66
73518;BME280;61766;60.318;25.044;2024-03-06T01:26:33;103218.89;;;-0.68;36.44
73518;BME280;61766;60.318;25.044;2024-03-06T01:28:58;103213.78;;;-0.70;36.33
73518;BME280;61766;60.318;25.044;2024-03-06T01:31:23;103212.12;;;-0.62;36.26
73518;BME280;61766;60.318;25.044;2024-03-06T01:33:49;103213.36;;;-0.64;36.25
73518;BME280;61766;60.318;25.044;2024-03-06T01:36:14;103210.40;;;-0.50;36.49
73518;BME280;61766;60.318;25.044;2024-03-06T01:38:39;103207.26;;;-0.47;36.03
73518;BME280;61766;60.318;25.044;2024-03-06T01:41:05;103206.64;;;-0.57;35.60
73518;BME280;61766;60.318;25.044;2024-03-06T01:43:37;103208.43;;;-0.48;35.69
73518;BME280;61766;60.318;25.044;2024-03-06T01:45:56;103210.69;;;-0.82;36.18
73518;BME280;61766;60.318;25.044;2024-03-06T01:48:25;103210.74;;;-0.89;36.30
73518;BME280;61766;60.318;25.044;2024-03-06T01:50:47;103208.85;;;-0.85;36.28
73518;BME280;61766;60.318;25.044;2024-03-06T01:53:13;103210.07;;;-0.80;35.99
73518;BME280;61766;60.318;25.044;2024-03-06T01:55:37;103214.73;;;-0.65;36.04
73518;BME280;61766;60.318;25.044;2024-03-06T01:58:03;103214.55;;;-1.15;37.04
73518;BME280;61766;60.318;25.044;2024-03-06T02:00:28;103209.03;;;-0.83;36.59
73518;BME280;61766;60.318;25.044;2024-03-06T02:02:53;103208.83;;;-1.05;36.49
73518;BME280;61766;60.318;25.044;2024-03-06T02:05:19;103213.22;;;-1.13;36.51
73518;BME280;61766;60.318;25.044;2024-03-06T02:07:45;103215.61;;;-1.34;37.22
73518;BME280;61766;60.318;25.044;2024-03-06T02:10:10;103213.81;;;-1.44;37.15
73518;BME280;61766;60.318;25.044;2024-03-06T02:12:34;103211.66;;;-1.34;36.82
73518;BME280;61766;60.318;25.044;2024-03-06T02:15:00;103212.87;;;-1.07;36.63
73518;BME280;61766;60.318;25.044;2024-03-06T02:17:25;103212.16;;;-1.04;36.59
73518;BME280;61766;60.318;25.044;2024-03-06T02:19:51;103206.11;;;-0.97;36.31
73518;BME280;61766;60.318;25.044;2024-03-06T02:22:16;103201.66;;;-1.18;35.98
73518;BME280;61766;60.318;25.044;2024-03-06T02:24:43;103201.50;;;-1.16;36.08
73518;BME280;61766;60.318;25.044;2024-03-06T02:27:06;103205.21;;;-1.36;36.15
73518;BME280;61766;60.318;25.044;2024-03-06T02:29:32;103203.47;;;-1.41;36.35
73518;BME280;61766;60.318;25.044;2024-03-06T02:31:57;103206.53;;;-1.07;36.16
73518;BME280;61766;60.318;25.044;2024-03-06T02:34:22;103204.12;;;-1.37;36.10
73518;BME280;61766;60.318;25.044;2024-03-06T02:36:47;103202.74;;;-1.26;36.17
73518;BME280;61766;60.318;25.044;2024-03-06T02:39:13;103202.42;;;-1.42;36.21
73518;BME280;61766;60.318;25.044;2024-03-06T02:41:38;103201.16;;;-1.29;36.08
73518;BME280;61766;60.318;25.044;2024-03-06T02:44:03;103206.05;;;-1.28;36.09
73518;BME280;61766;60.318;25.044;2024-03-06T02:46:29;103205.10;;;-1.29;35.92
73518;BME280;61766;60.318;25.044;2024-03-06T02:48:54;103205.80;;;-1.20;36.07
73518;BME280;61766;60.318;25.044;2024-03-06T02:51:21;103208.02;;;-1.47;36.06
73518;BME280;61766;60.318;25.044;2024-03-06T02:53:45;103209.53;;;-1.20;36.08
73518;BME280;61766;60.318;25.044;2024-03-06T02:56:15;103208.00;;;-1.12;36.04
73518;BME280;61766;60.318;25.044;2024-03-06T02:58:35;103212.22;;;-1.56;35.93
73518;BME280;61766;60.318;25.044;2024-03-06T03:01:01;103211.84;;;-1.34;35.85
73518;BME280;61766;60.318;25.044;2024-03-06T03:03:26;103214.14;;;-1.59;35.87
73518;BME280;61766;60.318;25.044;2024-03-06T03:05:52;103215.39;;;-1.43;35.87
73518;BME280;61766;60.318;25.044;2024-03-06T03:08:17;103216.68;;;-1.51;35.79
73518;BME280;61766;60.318;25.044;2024-03-06T03:10:42;103216.34;;;-1.50;35.63
73518;BME280;61766;60.318;25.044;2024-03-06T03:13:08;103219.55;;;-1.40;35.92
73518;BME280;61766;60.318;25.044;2024-03-06T03:15:33;103214.31;;;-1.58;35.82
73518;BME280;61766;60.318;25.044;2024-03-06T03:17:58;103213.18;;;-1.33;35.75
73518;BME280;61766;60.318;25.044;2024-03-06T03:20:24;103216.83;;;-1.29;35.68
73518;BME280;61766;60.318;25.044;2024-03-06T03:22:49;103221.44;;;-1.33;35.84
73518;BME280;61766;60.318;25.044;2024-03-06T03:25:15;103221.52;;;-1.36;35.72
73518;BME280;61766;60.318;25.044;2024-03-06T03:27:40;103219.10;;;-1.41;35.74
73518;BME280;61766;60.318;25.044;2024-03-06T03:30:07;103221.54;;;-1.47;35.67
73518;BME280;61766;60.318;25.044;2024-03-06T03:32:30;103223.23;;;-1.71;35.92
73518;BME280;61766;60.318;25.044;2024-03-06T03:34:56;103225.97;;;-1.97;35.84
73518;BME280;61766;60.318;25.044;2024-03-06T03:37:21;103225.89;;;-1.71;35.70
73518;BME280;61766;60.318;25.044;2024-03-06T03:39:47;103228.32;;;-1.91;35.54
73518;BME280;61766;60.318;25.044;2024-03-06T03:42:12;103227.26;;;-1.70;35.49
73518;BME280;61766;60.318;25.044;2024-03-06T03:44:37;103225.63;;;-1.71;35.60
73518;BME280;61766;60.318;25.044;2024-03-06T03:47:03;103228.80;;;-1.75;35.68
73518;BME280;61766;60.318;25.044;2024-03-06T03:49:28;103231.40;;;-1.70;35.80
73518;BME280;61766;60.318;25.044;2024-03-06T03:51:53;103229.30;;;-1.71;35.64
73518;BME280;61766;60.318;25.044;2024-03-06T03:54:19;103228.77;;;-1.72;35.41
73518;BME280;61766;60.318;25.044;2024-03-06T03:56:44;103224.88;;;-1.70;35.25
73518;BME280;61766;60.318;25.044;2024-03-06T03:59:09;103230.65;;;-1.70;35.09
73518;BME280;61766;60.318;25.044;2024-03-06T04:01:35;103232.67;;;-1.91;35.52
73518;BME280;61766;60.318;25.044;2024-03-06T04:04:00;103232.96;;;-1.92;35.54
73518;BME280;61766;60.318;25.044;2024-03-06T04:06:25;103233.74;;;-1.88;35.47
73518;BME280;61766;60.318;25.044;2024-03-06T04:08:50;103230.60;;;-1.80;35.58
73518;BME280;61766;60.318;25.044;2024-03-06T04:11:16;103230.81;;;-1.81;35.63
73518;BME280;61766;60.318;25.044;2024-03-06T04:13:42;103229.01;;;-1.81;35.51
73518;BME280;61766;60.318;25.044;2024-03-06T04:16:07;103229.18;;;-1.84;35.48
73518;BME280;61766;60.318;25.044;2024-03-06T04:18:33;103226.73;;;-1.91;35.64
73518;BME280;61766;60.318;25.044;2024-03-06T04:20:58;103225.65;;;-2.13;35.56
73518;BME280;61766;60.318;25.044;2024-03-06T04:23:23;103226.84;;;-1.89;35.42
73518;BME280;61766;60.318;25.044;2024-03-06T04:25:48;103224.28;;;-1.90;35.18
73518;BME280;61766;60.318;25.044;2024-03-06T04:28:14;103223.98;;;-1.91;35.09
73518;BME280;61766;60.318;25.044;2024-03-06T04:30:39;103222.97;;;-2.18;34.91
73518;BME280;61766;60.318;25.044;2024-03-06T04:33:04;103219.49;;;-2.00;34.91
73518;BME280;61766;60.318;25.044;2024-03-06T04:35:29;103216.64;;;-2.13;35.05
73518;BME280;61766;60.318;25.044;2024-03-06T04:37:55;103218.51;;;-2.18;35.11
73518;BME280;61766;60.318;25.044;2024-03-06T04:40:20;103218.22;;;-2.26;35.21
73518;BME280;61766;60.318;25.044;2024-03-06T04:42:46;103217.69;;;-2.26;35.27
73518;BME280;61766;60.318;25.044;2024-03-06T04:45:15;103220.53;;;-2.27;35.54
73518;BME280;61766;60.318;25.044;2024-03-06T04:47:36;103221.94;;;-2.22;35.41
73518;BME280;61766;60.318;25.044;2024-03-06T04:50:02;103221.02;;;-2.26;35.33
73518;BME280;61766;60.318;25.044;2024-03-06T04:52:27;103224.33;;;-2.07;35.32
73518;BME280;61766;60.318;25.044;2024-03-06T04:54:54;103227.25;;;-2.16;35.79
73518;BME280;61766;60.318;25.044;2024-03-06T04:57:18;103227.09;;;-2.45;35.80
73518;BME280;61766;60.318;25.044;2024-03-06T04:59:43;103228.37;;;-2.59;35.85
73518;BME280;61766;60.318;25.044;2024-03-06T05:02:08;103228.17;;;-2.81;35.84
73518;BME280;61766;60.318;25.044;2024-03-06T05:04:34;103225.98;;;-2.76;35.89
73518;BME280;61766;60.318;25.044;2024-03-06T05:09:25;103227.08;;;-2.72;35.88
73518;BME280;61766;60.318;25.044;2024-03-06T05:11:50;103225.88;;;-2.29;35.89
73518;BME280;61766;60.318;25.044;2024-03-06T05:14:16;103227.30;;;-2.49;36.23
73518;BME280;61766;60.318;25.044;2024-03-06T05:16:41;103228.52;;;-2.92;35.96
73518;BME280;61766;60.318;25.044;2024-03-06T05:19:06;103234.04;;;-2.49;36.11
73518;BME280;61766;60.318;25.044;2024-03-06T05:21:32;103235.96;;;-2.44;36.21
73518;BME280;61766;60.318;25.044;2024-03-06T05:23:57;103234.88;;;-2.37;36.12
73518;BME280;61766;60.318;25.044;2024-03-06T05:26:23;103236.77;;;-2.54;36.01
73518;BME280;61766;60.318;25.044;2024-03-06T05:28:48;103239.54;;;-2.51;35.89
73518;BME280;61766;60.318;25.044;2024-03-06T05:31:19;103237.89;;;-2.69;35.92
73518;BME280;61766;60.318;25.044;2024-03-06T05:33:39;103240.58;;;-2.65;35.75
73518;BME280;61766;60.318;25.044;2024-03-06T05:36:04;103240.26;;;-2.57;35.69
73518;BME280;61766;60.318;25.044;2024-03-06T05:38:30;103239.45;;;-2.39;35.69
73518;BME280;61766;60.318;25.044;2024-03-06T05:40:55;103242.37;;;-2.31;36.08
73518;BME280;61766;60.318;25.044;2024-03-06T05:43:20;103241.84;;;-2.50;36.25
73518;BME280;61766;60.318;25.044;2024-03-06T05:45:46;103244.65;;;-2.24;36.22
73518;BME280;61766;60.318;25.044;2024-03-06T05:48:11;103245.17;;;-2.42;36.13
73518;BME280;61766;60.318;25.044;2024-03-06T05:50:37;103245.97;;;-2.31;35.96
73518;BME280;61766;60.318;25.044;2024-03-06T05:53:02;103243.95;;;-2.19;36.02
73518;BME280;61766;60.318;25.044;2024-03-06T05:55:27;103244.93;;;-2.12;36.01
73518;BME280;61766;60.318;25.044;2024-03-06T05:57:53;103247.20;;;-2.04;35.98
73518;BME280;61766;60.318;25.044;2024-03-06T06:00:19;103244.61;;;-1.95;36.06
73518;BME280;61766;60.318;25.044;2024-03-06T06:02:43;103245.40;;;-1.86;35.98
73518;BME280;61766;60.318;25.044;2024-03-06T06:05:09;103242.88;;;-2.00;35.81
73518;BME280;61766;60.318;25.044;2024-03-06T06:07:34;103243.25;;;-1.81;36.07
73518;BME280;61766;60.318;25.044;2024-03-06T06:10:00;103249.41;;;-1.62;36.80
73518;BME280;61766;60.318;25.044;2024-03-06T06:12:25;103251.73;;;-1.95;36.81
73518;BME280;61766;60.318;25.044;2024-03-06T06:14:51;103251.61;;;-1.59;36.63
73518;BME280;61766;60.318;25.044;2024-03-06T06:17:16;103254.90;;;-1.44;36.63
73518;BME280;61766;60.318;25.044;2024-03-06T06:19:41;103250.32;;;-1.48;36.76
73518;BME280;61766;60.318;25.044;2024-03-06T06:22:06;103246.33;;;-1.28;36.87
73518;BME280;61766;60.318;25.044;2024-03-06T06:24:32;103249.87;;;-1.32;36.88
73518;BME280;61766;60.318;25.044;2024-03-06T06:26:57;103249.08;;;-0.96;36.93
73518;BME280;61766;60.318;25.044;2024-03-06T06:29:22;103247.92;;;-0.79;36.88
73518;BME280;61766;60.318;25.044;2024-03-06T06:31:47;103252.19;;;-1.09;37.40
73518;BME280;61766;60.318;25.044;2024-03-06T06:34:12;103252.45;;;-0.92;37.25
73518;BME280;61766;60.318;25.044;2024-03-06T06:36:37;103251.29;;;-1.03;37.77
73518;BME280;61766;60.318;25.044;2024-03-06T06:39:03;103253.35;;;-1.09;38.22
73518;BME280;61766;60.318;25.044;2024-03-06T06:41:28;103257.03;;;-0.80;38.48
73518;BME280;61766;60.318;25.044;2024-03-06T06:43:54;103252.35;;;-0.90;38.64
73518;BME280;61766;60.318;25.044;2024-03-06T06:46:20;103252.46;;;-0.69;38.80
73518;BME280;61766;60.318;25.044;2024-03-06T06:48:45;103254.47;;;-0.61;39.22
73518;BME280;61766;60.318;25.044;2024-03-06T06:51:10;103258.18;;;-0.30;38.81
73518;BME280;61766;60.318;25.044;2024-03-06T06:53:39;103258.14;;;0.04;38.47
73518;BME280;61766;60.318;25.044;2024-03-06T06:56:01;103254.74;;;-0.02;38.18
73518;BME280;61766;60.318;25.044;2024-03-06T06:58:26;103255.02;;;0.53;37.49
73518;BME280;61766;60.318;25.044;2024-03-06T07:00:52;103257.34;;;0.66;36.79
73518;BME280;61766;60.318;25.044;2024-03-06T07:03:17;103259.70;;;1.07;36.22
73518;BME280;61766;60.318;25.044;2024-03-06T07:05:42;103255.21;;;1.60;36.64
73518;BME280;61766;60.318;25.044;2024-03-06T07:08:08;103257.36;;;1.52;36.25
73518;BME280;61766;60.318;25.044;2024-03-06T07:10:33;103254.26;;;1.72;35.74
73518;BME280;61766;60.318;25.044;2024-03-06T07:12:58;103251.65;;;2.22;35.39
73518;BME280;61766;60.318;25.044;2024-03-06T07:15:24;103251.33;;;2.32;34.58
73518;BME280;61766;60.318;25.044;2024-03-06T07:17:49;103251.24;;;2.37;34.29
73518;BME280;61766;60.318;25.044;2024-03-06T07:20:14;103250.39;;;3.09;34.76
73518;BME280;61766;60.318;25.044;2024-03-06T07:22:40;103249.36;;;3.21;34.09
73518;BME280;61766;60.318;25.044;2024-03-06T07:25:05;103250.87;;;3.24;33.17
73518;BME280;61766;60.318;25.044;2024-03-06T07:27:30;103247.45;;;3.55;32.78
73518;BME280;61766;60.318;25.044;2024-03-06T07:29:56;103245.90;;;3.65;32.57
73518;BME280;61766;60.318;25.044;2024-03-06T07:32:21;103246.36;;;3.77;32.18
73518;BME280;61766;60.318;25.044;2024-03-06T07:34:47;103240.87;;;4.07;32.03
73518;BME280;61766;60.318;25.044;2024-03-06T07:37:11;103239.86;;;4.57;31.42
73518;BME280;61766;60.318;25.044;2024-03-06T07:39:36;103239.15;;;4.48;31.85
73518;BME280;61766;60.318;25.044;2024-03-06T07:42:01;103240.23;;;4.79;31.33
73518;BME280;61766;60.318;25.044;2024-03-06T07:44:27;103237.68;;;5.21;30.60
73518;BME280;61766;60.318;25.044;2024-03-06T07:46:52;103238.46;;;5.13;30.27
73518;BME280;61766;60.318;25.044;2024-03-06T07:49:17;103237.18;;;5.40;30.25
73518;BME280;61766;60.318;25.044;2024-03-06T07:51:42;103236.77;;;5.82;29.13
73518;BME280;61766;60.318;25.044;2024-03-06T07:54:07;103237.08;;;6.35;28.70
73518;BME280;61766;60.318;25.044;2024-03-06T07:56:32;103235.76;;;6.19;28.77
73518;BME280;61766;60.318;25.044;2024-03-06T07:58:58;103233.14;;;6.79;28.73
73518;BME280;61766;60.318;25.044;2024-03-06T08:01:23;103238.64;;;7.09;27.91
73518;BME280;61766;60.318;25.044;2024-03-06T08:03:48;103232.96;;;7.11;27.80
73518;BME280;61766;60.318;25.044;2024-03-06T08:06:13;103223.45;;;7.32;28.22
73518;BME280;61766;60.318;25.044;2024-03-06T08:08:39;103225.30;;;7.43;26.95
73518;BME280;61766;60.318;25.044;2024-03-06T08:11:03;103219.26;;;7.66;27.53
73518;BME280;61766;60.318;25.044;2024-03-06T08:13:28;103219.23;;;8.05;27.31
73518;BME280;61766;60.318;25.044;2024-03-06T08:15:53;103218.09;;;7.84;27.05
73518;BME280;61766;60.318;25.044;2024-03-06T08:18:18;103212.56;;;7.82;27.07
73518;BME280;61766;60.318;25.044;2024-03-06T08:20:43;103210.94;;;8.44;26.92
73518;BME280;61766;60.318;25.044;2024-03-06T08:23:08;103209.62;;;8.61;26.80
73518;BME280;61766;60.318;25.044;2024-03-06T08:25:33;103203.52;;;8.83;26.37
73518;BME280;61766;60.318;25.044;2024-03-06T08:27:58;103202.32;;;8.61;26.05
73518;BME280;61766;60.318;25.044;2024-03-06T08:30:23;103202.31;;;8.60;26.12
73518;BME280;61766;60.318;25.044;2024-03-06T08:32:49;103206.27;;;8.81;25.09
73518;BME280;61766;60.318;25.044;2024-03-06T08:35:14;103209.01;;;8.73;25.02
73518;BME280;61766;60.318;25.044;2024-03-06T08:37:39;103207.20;;;8.52;25.52
73518;BME280;61766;60.318;25.044;2024-03-06T08:40:05;103204.84;;;9.14;25.49
73518;BME280;61766;60.318;25.044;2024-03-06T08:42:29;103207.95;;;9.16;24.94
73518;BME280;61766;60.318;25.044;2024-03-06T08:44:54;103207.89;;;9.44;24.85
73518;BME280;61766;60.318;25.044;2024-03-06T08:47:19;103203.38;;;9.62;24.64
73518;BME280;61766;60.318;25.044;2024-03-06T08:49:45;103201.25;;;9.87;23.48
73518;BME280;61766;60.318;25.044;2024-03-06T08:52:10;103200.97;;;10.13;23.44
73518;BME280;61766;60.318;25.044;2024-03-06T08:54:36;103199.11;;;9.91;24.52
73518;BME280;61766;60.318;25.044;2024-03-06T08:57:02;103200.49;;;9.99;24.04
73518;BME280;61766;60.318;25.044;2024-03-06T08:59:28;103200.41;;;9.87;24.51
73518;BME280;61766;60.318;25.044;2024-03-06T09:01:55;103198.95;;;10.55;24.06
73518;BME280;61766;60.318;25.044;2024-03-06T09:04:19;103196.59;;;10.40;23.67
73518;BME280;61766;60.318;25.044;2024-03-06T09:06:45;103192.99;;;10.02;23.42
73518;BME280;61766;60.318;25.044;2024-03-06T09:09:10;103195.63;;;10.49;23.16
73518;BME280;61766;60.318;25.044;2024-03-06T09:11:36;103191.80;;;10.38;23.07
73518;BME280;61766;60.318;25.044;2024-03-06T09:14:01;103190.93;;;10.74;22.26
73518;BME280;61766;60.318;25.044;2024-03-06T09:16:27;103183.63;;;9.89;24.11
73518;BME280;61766;60.318;25.044;2024-03-06T09:18:52;103181.48;;;9.70;23.67
73518;BME280;61766;60.318;25.044;2024-03-06T09:21:17;103181.54;;;10.35;23.08
73518;BME280;61766;60.318;25.044;2024-03-06T09:23:42;103179.89;;;10.34;24.00
73518;BME280;61766;60.318;25.044;2024-03-06T09:26:08;103178.26;;;10.58;22.45
73518;BME280;61766;60.318;25.044;2024-03-06T09:28:33;103176.08;;;10.33;22.48
73518;BME280;61766;60.318;25.044;2024-03-06T09:30:59;103175.10;;;10.37;23.18
73518;BME280;61766;60.318;25.044;2024-03-06T09:33:25;103175.82;;;10.79;22.95
73518;BME280;61766;60.318;25.044;2024-03-06T09:35:51;103175.67;;;10.91;22.03
73518;BME280;61766;60.318;25.044;2024-03-06T09:38:18;103174.21;;;10.57;21.97
73518;BME280;61766;60.318;25.044;2024-03-06T09:40:42;103173.30;;;9.17;23.52
73518;BME280;61766;60.318;25.044;2024-03-06T09:43:07;103171.08;;;8.45;24.93
73518;BME280;61766;60.318;25.044;2024-03-06T09:45:32;103170.98;;;8.80;25.59
73518;BME280;61766;60.318;25.044;2024-03-06T09:47:57;103168.37;;;9.33;24.92
73518;BME280;61766;60.318;25.044;2024-03-06T09:50:25;103162.92;;;10.33;24.13
73518;BME280;61766;60.318;25.044;2024-03-06T09:52:49;103161.40;;;10.61;22.53
73518;BME280;61766;60.318;25.044;2024-03-06T09:55:14;103163.79;;;10.72;22.49
73518;BME280;61766;60.318;25.044;2024-03-06T09:57:40;103162.35;;;11.17;22.21
73518;BME280;61766;60.318;25.044;2024-03-06T10:00:06;103163.18;;;10.97;22.14
73518;BME280;61766;60.318;25.044;2024-03-06T10:02:35;103161.78;;;11.07;21.11
73518;BME280;61766;60.318;25.044;2024-03-06T10:04:57;103159.66;;;11.37;21.54
73518;BME280;61766;60.318;25.044;2024-03-06T10:07:23;103159.70;;;11.34;21.34
73518;BME280;61766;60.318;25.044;2024-03-06T10:09:50;103156.54;;;11.64;22.32
73518;BME280;61766;60.318;25.044;2024-03-06T10:12:16;103150.71;;;11.84;20.84
73518;BME280;61766;60.318;25.044;2024-03-06T10:14:48;103151.00;;;11.67;20.98
73518;BME280;61766;60.318;25.044;2024-03-06T10:17:06;103145.47;;;11.63;21.59
73518;BME280;61766;60.318;25.044;2024-03-06T10:19:33;103142.63;;;12.01;21.24
73518;BME280;61766;60.318;25.044;2024-03-06T10:21:58;103143.64;;;12.09;20.83
73518;BME280;61766;60.318;25.044;2024-03-06T10:24:24;103145.66;;;11.30;21.64
73518;BME280;61766;60.318;25.044;2024-03-06T10:26:49;103146.16;;;10.58;22.01
73518;BME280;61766;60.318;25.044;2024-03-06T10:29:18;103144.83;;;10.27;23.58
73518;BME280;61766;60.318;25.044;2024-03-06T10:31:40;103142.17;;;10.08;22.63
73518;BME280;61766;60.318;25.044;2024-03-06T10:34:05;103142.30;;;9.25;25.05
73518;BME280;61766;60.318;25.044;2024-03-06T10:36:31;103142.42;;;9.83;23.62
73518;BME280;61766;60.318;25.044;2024-03-06T10:38:57;103142.19;;;10.09;22.07
73518;BME280;61766;60.318;25.044;2024-03-06T10:41:22;103138.85;;;10.64;22.43
73518;BME280;61766;60.318;25.044;2024-03-06T10:43:49;103143.05;;;11.04;22.77
73518;BME280;61766;60.318;25.044;2024-03-06T10:46:14;103140.78;;;10.96;21.06
73518;BME280;61766;60.318;25.044;2024-03-06T10:48:39;103136.85;;;10.39;22.33
73518;BME280;61766;60.318;25.044;2024-03-06T10:51:05;103134.12;;;10.43;22.65
73518;BME280;61766;60.318;25.044;2024-03-06T10:53:31;103134.45;;;10.92;22.14
73518;BME280;61766;60.318;25.044;2024-03-06T10:55:56;103127.41;;;11.13;21.65
73518;BME280;61766;60.318;25.044;2024-03-06T10:58:23;103121.61;;;9.78;22.61
73518;BME280;61766;60.318;25.044;2024-03-06T11:00:48;103122.23;;;9.97;23.15
73518;BME280;61766;60.318;25.044;2024-03-06T11:03:14;103121.05;;;9.59;23.54
73518;BME280;61766;60.318;25.044;2024-03-06T11:05:38;103123.49;;;10.21;22.73
73518;BME280;61766;60.318;25.044;2024-03-06T11:08:02;103119.76;;;9.72;23.79
73518;BME280;61766;60.318;25.044;2024-03-06T11:10:34;103114.90;;;10.53;22.92
73518;BME280;61766;60.318;25.044;2024-03-06T11:12:53;103113.37;;;10.66;23.41
73518;BME280;61766;60.318;25.044;2024-03-06T11:15:19;103111.89;;;10.50;22.71
73518;BME280;61766;60.318;25.044;2024-03-06T11:17:44;103109.85;;;10.23;22.23
73518;BME280;61766;60.318;25.044;2024-03-06T11:20:16;103110.68;;;10.12;23.32
73518;BME280;61766;60.318;25.044;2024-03-06T11:25:00;103112.31;;;9.95;22.79
73518;BME280;61766;60.318;25.044;2024-03-06T11:27:25;103106.73;;;10.18;22.08
73518;BME280;61766;60.318;25.044;2024-03-06T11:30:04;103103.82;;;9.86;22.95
73518;BME280;61766;60.318;25.044;2024-03-06T11:32:16;103098.35;;;10.04;23.50
73518;BME280;61766;60.318;25.044;2024-03-06T11:34:41;103097.98;;;10.69;22.08
73518;BME280;61766;60.318;25.044;2024-03-06T11:37:07;103093.49;;;10.18;21.90
73518;BME280;61766;60.318;25.044;2024-03-06T11:39:33;103088.36;;;9.70;22.55
73518;BME280;61766;60.318;25.044;2024-03-06T11:41:55;103087.64;;;9.18;23.47
73518;BME280;61766;60.318;25.044;2024-03-06T11:44:22;103083.50;;;8.85;24.29
73518;BME280;61766;60.318;25.044;2024-03-06T11:46:46;103078.88;;;9.15;23.90
73518;BME280;61766;60.318;25.044;2024-03-06T11:49:15;103077.64;;;9.76;23.26
73518;BME280;61766;60.318;25.044;2024-03-06T11:51:35;103075.55;;;10.41;21.70
73518;BME280;61766;60.318;25.044;2024-03-06T11:54:00;103073.48;;;9.81;21.78
73518;BME280;61766;60.318;25.044;2024-03-06T11:56:25;103073.62;;;9.62;22.85
73518;BME280;61766;60.318;25.044;2024-03-06T11:58:51;103072.69;;;9.69;22.08
73518;BME280;61766;60.318;25.044;2024-03-06T12:01:15;103067.14;;;9.96;22.76
73518;BME280;61766;60.318;25.044;2024-03-06T12:03:41;103063.54;;;9.87;23.51
73518;BME280;61766;60.318;25.044;2024-03-06T12:06:06;103062.10;;;10.32;22.22
73518;BME280;61766;60.318;25.044;2024-03-06T12:08:30;103060.05;;;10.15;22.62
73518;BME280;61766;60.318;25.044;2024-03-06T12:10:55;103058.98;;;10.41;21.97
73518;BME280;61766;60.318;25.044;2024-03-06T12:13:20;103055.43;;;10.54;21.45
73518;BME280;61766;60.318;25.044;2024-03-06T12:15:46;103056.17;;;10.27;22.80
73518;BME280;61766;60.318;25.044;2024-03-06T12:18:11;103051.26;;;10.55;20.96
73518;BME280;61766;60.318;25.044;2024-03-06T12:20:40;103048.12;;;9.54;22.17
73518;BME280;61766;60.318;25.044;2024-03-06T12:23:01;103046.36;;;9.18;23.85
73518;BME280;61766;60.318;25.044;2024-03-06T12:25:27;103041.33;;;9.94;23.28
73518;BME280;61766;60.318;25.044;2024-03-06T12:27:53;103038.44;;;10.70;21.76
73518;BME280;61766;60.318;25.044;2024-03-06T12:30:19;103037.13;;;10.30;21.56
73518;BME280;61766;60.318;25.044;2024-03-06T12:32:41;103035.88;;;10.18;22.46
73518;BME280;61766;60.318;25.044;2024-03-06T12:35:08;103032.72;;;10.52;22.08
73518;BME280;61766;60.318;25.044;2024-03-06T12:37:34;103030.96;;;10.74;21.98